Hsin-chu, Taiwan
Current Conditions -  °F | °C
As of 11:30 PM on Saturday 25 Oct 2014 (Local Time) from RCTP Reporting Station
Scattered Clouds Scattered Clouds  
Wind Chill: 73°   Ceiling: Unl
Heat Index: 73°   Visibility: 6mi
Dew Point: 68°   Wind: 2mph
Humidity: 83%   Direction: 40°NE
Pressure: 30.03"   Gusts: NA
Location:  24.8°N, 120.97°E
Report Text: RCTP 251530Z 04002KT 9999 FEW025 SCT180 23/20 Q1017 NOSIGRMK A3004
Loading
Personal Weather Stations






























Interactive Weather Map
Tropical Storm Tracking
New forecast layout! Learn more

10-Day Weather Forecast

Advertisements
Track Severe Weather on mobile